Terminal Aerodrome Forecast
Issued by NWS

Home | Current Version | Previous Version | Text Only | Print | Product List | Glossary On
Versions: 1 2 3 4 5 6 7 8 9 10 11 12 13
000
FTUS42 TJSJ 280500
TAFJSJ
TAF
TJSJ 280520Z 2806/2906 VRB05KT P6SM FEW030
     FM281330 11013G24KT P6SM FEW030 FEW060
     FM281600 08015G25KT P6SM FEW035 SCT050
     FM282200 09012KT P6SM FEW035=

USA.gov is the U.S. government's official web portal to all federal, state and local government web resources and services.